Latest Weather Observations for Coober Pedy Airport

IDS60801

Issued at 6:35 am CDT Tuesday 25 November 2014 (issued every 30 minutes, with the page automatically refreshed every 10 minutes)

About weather observations | Map of weather stations | Latest weather observations for SA | Other Formats
Station Details ID: 016090 Name: COOBER PEDY AIRPORT Lat: -29.03 Lon: 134.72 Height: 225.0 m
Data from the previous 72 hours. | See also: Recent months at Coober Pedy Airport
Date/Time
CDT
Temp
°C
App
Temp
°C
Dew
Point
Rel
Hum
%
Delta-T
°C
Wind Press
QNH
hPa
Press
MSL
hPa
Rain
since 9 am
mm
Dir
 
Spd
km/h
Gust
km/h
Spd
kts
Gust
kts
25/06:30am 14.4 8.2 4.1 50 4.8 S 26 33 14 18 1020.4 1019.3 0.0
25/06:00am 14.6 7.6 4.0 49 4.9 S 30 35 16 19 1020.0 1018.9 0.0
25/05:30am 15.0 7.9 3.8 47 5.2 S 30 37 16 20 1019.8 1018.7 0.0
25/05:00am 15.1 8.4 3.6 46 5.3 S 28 35 15 19 1019.6 1018.5 0.0
25/04:30am 15.4 7.7 3.5 45 5.5 S 33 39 18 21 1019.3 1018.2 0.0
25/04:00am 15.7 8.2 3.2 43 5.7 S 32 39 17 21 1019.2 1018.1 0.0
25/03:30am 16.1 8.2 2.5 40 6.2 S 33 44 18 24 1019.0 1017.9 0.0
25/03:00am 16.5 7.8 2.2 38 6.5 S 37 46 20 25 1019.0 1017.9 0.0
25/02:30am 17.0 8.3 2.2 37 6.7 S 37 44 20 24 1019.0 1017.9 0.0
25/02:00am 17.7 9.1 2.5 36 7.0 S 37 44 20 24 1019.2 1018.1 0.0
25/01:30am 18.6 10.8 2.0 33 7.6 S 32 41 17 22 1019.2 1018.1 0.0
25/01:00am 19.4 11.1 1.9 31 8.1 S 35 43 19 23 1019.1 1018.0 0.0
25/12:30am 20.1 11.6 2.9 32 8.1 S 37 44 20 24 1019.1 1018.0 0.0
25/12:00am 21.0 12.6 3.7 32 8.4 S 37 46 20 25 1018.7 1017.6 0.0
 
Date/Time
CDT
Temp
°C
App
Temp
°C
Dew
Point
Rel
Hum
%
Delta-T
°C
Wind Press
QNH
hPa
Press
MSL
hPa
Rain
since 9 am
mm
Dir
 
Spd
km/h
Gust
km/h
Spd
kts
Gust
kts
24/11:30pm 21.8 12.5 3.0 29 9.0 S 41 46 22 25 1018.3 1017.2 0.0
24/11:00pm 22.6 14.2 1.6 25 9.9 S 35 48 19 26 1018.3 1017.2 0.0
24/10:30pm 23.5 15.6 2.4 25 10.1 S 33 44 18 24 1017.8 1016.6 0.0
24/10:00pm 24.3 16.1 2.5 24 10.6 S 35 46 19 25 1017.4 1016.2 0.0
24/09:30pm 25.2 16.4 3.8 25 10.7 S 39 44 21 24 1016.8 1015.7 0.0
24/09:00pm 26.2 17.7 3.4 23 11.4 S 37 48 20 26 1016.2 1015.1 0.0
24/08:30pm 27.4 20.0 5.1 24 11.6 S 33 39 18 21 1015.5 1014.4 0.0
24/08:00pm 28.2 20.8 5.1 23 12.0 S 33 43 18 23 1015.2 1014.1 0.0
24/07:30pm 29.1 21.4 5.2 22 12.5 S 35 43 19 23 1014.7 1013.6 0.0
24/07:00pm 29.7 22.2 4.4 20 13.1 S 33 43 18 23 1014.3 1013.2 0.0
24/06:30pm 30.4 23.5 6.3 22 13.0 S 32 44 17 24 1014.0 1012.8 0.0
24/06:00pm 31.0 23.6 6.8 22 13.2 S 35 48 19 26 1014.0 1012.8 0.0
24/05:30pm 30.6 23.7 7.1 23 12.8 S 33 46 18 25 1013.9 1012.7 0.0
24/05:00pm 30.6 22.8 6.5 22 13.0 S 37 52 20 28 1013.9 1012.7 0.0
24/04:30pm 30.5 22.6 6.4 22 13.0 SSW 37 48 20 26 1013.7 1012.5 0.0
24/04:00pm 30.7 22.7 5.9 21 13.3 SSW 37 46 20 25 1013.9 1012.7 0.0
24/03:30pm 30.2 22.3 6.1 22 12.9 S 37 52 20 28 1014.0 1012.8 0.0
24/03:02pm 30.2 22.2 7.4 24 12.5 SSW 39 57 21 31 1014.1 1013.0 0.0
24/03:00pm 30.1 21.7 7.3 24 12.5 SSW 41 56 22 30 1014.1 1013.0 0.0
24/02:30pm 30.4 22.4 7.6 24 12.5 S 39 52 21 28 1014.3 1013.2 0.0
24/02:00pm 29.3 20.9 7.2 25 12.0 S 41 54 22 29 1014.7 1013.6 0.0
24/01:35pm 29.3 20.5 7.2 25 12.0 S 43 61 23 33 1014.7 1013.6 0.0
24/01:30pm 29.0 19.6 7.0 25 11.9 S 46 61 25 33 1014.7 1013.6 0.0
24/01:24pm 29.2 20.5 7.7 26 11.8 S 43 61 23 33 1014.6 1013.5 0.0
24/01:00pm 28.9 19.6 7.5 26 11.7 SSW 46 57 25 31 1014.6 1013.5 0.0
24/12:30pm 28.0 18.6 7.3 27 11.2 S 46 57 25 31 1014.7 1013.6 0.0
24/12:00pm 27.2 18.3 7.6 29 10.6 S 44 59 24 32 1015.0 1013.9 0.0
24/11:30am 26.5 17.7 8.0 31 10.0 S 44 54 24 29 1015.2 1014.1 0.0
24/11:00am 25.2 16.6 8.2 34 9.2 S 43 50 23 27 1015.3 1014.2 0.0
24/10:30am 24.7 15.2 8.2 35 8.9 S 48 57 26 31 1014.9 1013.8 0.0
24/10:00am 24.5 15.5 8.9 37 8.5 S 46 57 25 31 1014.7 1013.6 0.0
24/09:30am 23.0 14.7 9.4 42 7.4 SSW 43 54 23 29 1014.6 1013.5 0.0
24/09:00am 22.0 14.1 10.8 49 6.2 SSW 43 52 23 28 1014.5 1013.4 0.4
24/08:30am 21.5 14.2 11.5 53 5.6 SSW 41 50 22 27 1013.8 1012.6 0.4
24/08:00am 21.5 14.6 11.5 53 5.6 SSW 39 46 21 25 1013.1 1011.9 0.4
24/07:30am 21.5 15.2 11.2 52 5.8 SSW 35 43 19 23 1012.8 1011.6 0.4
24/07:00am 22.2 16.7 10.7 48 6.4 S 30 37 16 20 1012.1 1011.0 0.4
24/06:30am 23.4 17.4 10.8 45 7.1 SSW 33 43 18 23 1011.2 1010.1 0.4
24/06:00am 25.4 19.8 11.6 42 7.9 SSW 32 41 17 22 1010.0 1008.8 0.4
24/05:50am 25.6 20.8 11.7 42 8.0 SSW 28 39 15 21 1009.7 1008.5 0.4
24/05:30am 24.9 22.3 13.1 48 6.9 SW 19 20 10 11 1009.1 1007.9 0.4
24/05:00am 25.1 22.4 13.0 47 7.1 SW 19 26 10 14 1008.6 1007.4 0.4
24/04:30am 23.6 20.5 13.5 53 5.9 WSW 22 24 12 13 1008.5 1007.3 0.2
24/04:00am 23.3 21.7 13.8 55 5.6 WNW 15 17 8 9 1007.8 1006.7 0.2
24/03:30am 24.5 23.3 12.8 48 6.8 N 11 13 6 7 1007.6 1006.5 0.2
24/03:00am 25.1 23.5 12.7 46 7.3 NNE 13 15 7 8 1007.4 1006.3 0.2
24/02:30am 25.2 22.8 12.8 46 7.3 ENE 17 19 9 10 1007.4 1006.3 0.2
24/02:00am 25.4 23.6 13.3 47 7.1 NE 15 17 8 9 1007.5 1006.4 0.2
24/01:30am 26.1 24.4 13.6 46 7.4 ENE 15 17 8 9 1007.8 1006.7 0.2
24/01:00am 26.5 26.5 14.3 47 7.3 ENE 7 13 4 7 1008.3 1007.1 0.2
24/12:30am 26.9 25.9 14.6 46 7.5 ENE 13 15 7 8 1008.5 1007.3 0.2
24/12:00am 27.5 26.0 14.2 44 8.0 E 15 17 8 9 1008.5 1007.3 0.2
 
Date/Time
CDT
Temp
°C
App
Temp
°C
Dew
Point
Rel
Hum
%
Delta-T
°C
Wind Press
QNH
hPa
Press
MSL
hPa
Rain
since 9 am
mm
Dir
 
Spd
km/h
Gust
km/h
Spd
kts
Gust
kts
23/11:30pm 27.2 25.7 15.2 47 7.4 E 17 20 9 11 1008.5 1007.3 0.2
23/11:00pm 26.9 25.5 15.6 50 7.0 E 17 19 9 10 1008.3 1007.1 0.2
23/10:30pm 26.8 25.9 15.8 51 6.8 ENE 15 17 8 9 1008.6 1007.4 0.2
23/10:00pm 27.4 25.8 16.1 50 7.0 E 19 20 10 11 1008.2 1007.0 0.2
23/09:30pm 28.2 28.7 16.5 49 7.4 E 9 11 5 6 1008.2 1007.0 0.2
23/09:00pm 30.0 28.8 14.1 37 9.7 E 13 17 7 9 1007.9 1006.8 0.2
23/08:30pm 27.1 28.7 20.7 68 4.3 N 13 17 7 9 1009.7 1008.5 0.2
23/08:00pm 29.0 28.5 15.9 45 8.2 NW 13 13 7 7 1009.6 1008.4 0.0
23/07:30pm 30.0 24.0 14.5 38 9.5 NW 39 50 21 27 1009.4 1008.2 0.0
23/07:02pm 32.4 23.7 12.6 30 11.9 NNW 50 69 27 37 1008.4 1007.2 0.0
23/07:00pm 32.4 23.3 12.6 30 11.9 NNW 52 69 28 37 1008.4 1007.2 0.0
23/06:50pm 34.3 26.6 10.2 23 14.1 NNW 41 63 22 34 1007.9 1006.8 0.0
23/06:46pm 34.8 27.3 9.3 21 14.7 NNW 39 48 21 26 1007.8 1006.7 0.0
23/06:30pm 36.2 30.8 6.4 16 16.6 WNW 24 35 13 19 1007.5 1006.4 0.0
23/06:18pm 36.1 30.1 7.2 17 16.2 NW 28 37 15 20 1007.5 1006.4 0.0
23/06:00pm 35.9 34.3 7.9 18 15.9 SW 6 13 3 7 1007.1 1006.0 0.0
23/05:30pm 36.1 34.5 8.0 18 16.0 W 6 7 3 4 1006.7 1005.6 0.0
23/05:00pm 36.8 35.0 7.8 17 16.5 WNW 7 15 4 8 1006.6 1005.5 0.0
23/04:30pm 36.2 33.9 7.3 17 16.3 NW 9 15 5 8 1006.7 1005.6 0.0
23/04:00pm 36.3 33.8 8.2 18 16.0 W 11 15 6 8 1007.4 1006.3 0.0
23/03:30pm 36.1 31.5 8.0 18 16.0 W 22 28 12 15 1007.4 1006.3 0.0
23/03:00pm 36.1 31.5 8.0 18 16.0 W 22 28 12 15 1007.6 1006.5 0.0
23/02:30pm 36.5 33.2 6.6 16 16.7 WNW 13 17 7 9 1007.6 1006.5 0.0
23/02:00pm 36.6 34.7 7.6 17 16.4 S 7 13 4 7 1007.7 1006.6 0.0
23/01:30pm 36.2 34.1 8.1 18 16.0 N 9 19 5 10 1008.3 1007.1 0.0
23/01:00pm 35.1 32.6 8.0 19 15.3 NNE 11 19 6 10 1008.8 1007.6 0.0
23/12:30pm 34.8 30.5 7.8 19 15.2 NE 20 30 11 16 1009.3 1008.1 0.0
23/12:00pm 34.6 30.2 7.6 19 15.2 ENE 20 30 11 16 1009.4 1008.2 0.0
23/11:30am 32.2 28.6 8.4 23 13.4 NE 17 26 9 14 1009.7 1008.5 0.0
23/11:00am 31.1 27.0 8.8 25 12.5 NE 20 30 11 16 1010.2 1009.1 0.0
23/10:30am 29.8 24.6 8.8 27 11.8 E 26 33 14 18 1010.2 1009.1 0.0
23/10:00am 28.7 23.0 8.4 28 11.2 E 28 37 15 20 1009.9 1008.7 0.0
23/09:30am 27.9 23.3 8.2 29 10.8 E 22 26 12 14 1010.0 1008.8 0.0
23/09:00am 26.6 22.9 8.1 31 10.1 SE 17 20 9 11 1010.1 1009.0 0.0
23/08:30am 25.6 20.2 8.1 33 9.5 ESE 26 33 14 18 1009.5 1008.3 0.0
23/08:00am 25.3 19.3 8.7 35 9.1 ESE 30 39 16 21 1009.1 1007.9 0.0
23/07:30am 25.0 18.7 8.9 36 8.8 ESE 32 41 17 22 1008.6 1007.4 0.0
23/07:00am 24.7 18.4 9.0 37 8.6 ESE 32 41 17 22 1008.4 1007.2 0.0
23/06:30am 24.5 18.6 10.4 41 7.9 E 32 44 17 24 1008.6 1007.4 0.0
23/06:00am 25.5 19.2 9.7 37 8.8 SE 33 44 18 24 1007.5 1006.4 0.0
23/05:30am 25.7 19.8 9.1 35 9.2 SE 30 39 16 21 1007.8 1006.7 0.0
23/05:00am 25.7 18.4 8.7 34 9.3 ESE 37 48 20 26 1007.9 1006.8 0.0
23/04:30am 26.2 19.1 8.2 32 9.8 ESE 35 44 19 24 1007.3 1006.2 0.0
23/04:00am 27.9 20.5 4.2 22 12.1 SSE 32 41 17 22 1008.8 1007.6 0.0
23/03:30am 28.2 20.6 3.1 20 12.7 SSE 32 39 17 21 1008.4 1007.2 0.0
23/03:00am 28.5 21.0 3.4 20 12.7 SSE 32 39 17 21 1007.8 1006.7 0.0
23/02:30am 29.0 21.6 3.8 20 12.9 SSE 32 43 17 23 1007.7 1006.6 0.0
23/02:00am 29.8 21.8 3.7 19 13.4 SSE 35 43 19 23 1007.9 1006.8 0.0
23/01:30am 30.5 22.6 4.3 19 13.7 SSE 35 48 19 26 1007.9 1006.8 0.0
23/01:00am 31.0 23.2 4.7 19 13.8 SSE 35 46 19 25 1008.3 1007.1 0.0
23/12:30am 31.8 23.7 5.3 19 14.2 SSE 37 48 20 26 1008.6 1007.4 0.0
23/12:00am 32.9 24.6 6.2 19 14.6 SSE 39 48 21 26 1008.3 1007.1 0.0
 
Date/Time
CDT
Temp
°C
App
Temp
°C
Dew
Point
Rel
Hum
%
Delta-T
°C
Wind Press
QNH
hPa
Press
MSL
hPa
Rain
since 9 am
mm
Dir
 
Spd
km/h
Gust
km/h
Spd
kts
Gust
kts
22/11:30pm 33.8 27.5 9.1 22 14.2 SSE 32 43 17 23 1007.8 1006.7 0.0
22/11:00pm 34.3 29.5 10.2 23 14.1 S 26 33 14 18 1007.6 1006.5 0.0
22/10:30pm 35.0 29.8 10.1 22 14.6 S 28 33 15 18 1007.1 1006.0 0.0
22/10:00pm 35.8 30.7 9.3 20 15.4 S 26 32 14 17 1006.7 1005.6 0.0
22/09:30pm 36.6 31.9 9.2 19 15.9 S 24 30 13 16 1006.4 1005.3 0.0
22/09:00pm 37.4 31.3 8.2 17 16.8 S 30 33 16 18 1006.1 1004.9 0.0
22/08:30pm 38.2 32.7 6.0 14 18.0 S 24 30 13 16 1005.8 1004.6 0.0
22/08:00pm 39.2 32.9 5.7 13 18.7 S 28 37 15 20 1005.2 1004.0 0.0
22/07:30pm 40.3 32.6 5.4 12 19.5 SSW 35 48 19 26 1004.5 1003.3 0.0
22/07:00pm 41.3 33.1 4.9 11 20.3 SSW 37 48 20 26 1003.9 1002.7 0.0
22/06:30pm 42.2 33.9 4.3 10 21.1 SW 37 50 20 27 1003.5 1002.3 0.0
22/06:09pm 42.6 33.0 4.6 10 21.2 SW 44 52 24 28 1002.9 1001.8 0.0
22/06:08pm 42.8 35.9 4.7 10 21.3 W 30 50 16 27 1003.0 1001.9 0.0
22/06:00pm 43.4 37.6 0.1 7 22.8 W 20 30 11 16 1003.0 1001.9 0.0
22/05:36pm 43.5 36.5 2.1 8 22.4 W 28 46 15 25 1003.3 1002.2 0.0
22/05:30pm 43.6 35.9 2.1 8 22.5 WSW 32 46 17 25 1003.5 1002.3 0.0
22/05:29pm 43.4 35.6 2.0 8 22.3 WSW 32 46 17 25 1003.5 1002.3 0.0
22/05:00pm 43.0 39.0 4.9 10 21.4 SW 15 28 8 15 1003.7 1002.5 0.0
22/04:39pm 43.5 36.8 3.7 9 22.0 W 28 46 15 25 1003.7 1002.5 0.0
22/04:30pm 44.1 38.0 2.5 8 22.7 W 24 32 13 17 1003.9 1002.7 0.0
22/04:00pm 42.9 37.1 6.2 11 21.0 SW 26 33 14 18 1004.2 1003.0 0.0
22/03:30pm 42.4 35.3 1.3 8 21.9 W 28 39 15 21 1004.5 1003.3 0.0
22/03:04pm 42.6 35.5 1.4 8 21.9 W 28 46 15 25 1004.9 1003.7 0.0
22/03:00pm 43.4 35.6 2.0 8 22.4 WNW 32 46 17 25 1004.9 1003.7 0.0
22/02:41pm 43.6 36.0 0.3 7 22.8 W 30 54 16 29 1005.1 1003.9 0.0
22/02:30pm 43.1 36.1 1.8 8 22.2 WNW 28 43 15 23 1005.3 1004.1 0.0
22/02:06pm 42.5 35.7 3.0 9 21.5 W 28 48 15 26 1005.6 1004.4 0.0
22/02:00pm 42.2 36.5 2.8 9 21.4 W 22 39 12 21 1005.6 1004.4 0.0
22/01:41pm 42.5 35.7 3.0 9 21.5 WNW 28 46 15 25 1005.8 1004.6 0.0
22/01:30pm 42.6 36.5 4.6 10 21.2 WNW 26 33 14 18 1006.0 1004.8 0.0
22/01:00pm 43.1 37.0 4.9 10 21.4 W 26 35 14 19 1006.3 1005.2 0.0
22/12:30pm 41.5 34.4 3.7 10 20.7 NW 30 43 16 23 1006.6 1005.5 0.0
22/12:11pm 41.8 35.7 6.6 12 20.1 NW 28 46 15 25 1006.7 1005.6 0.0
22/12:00pm 41.5 35.4 6.4 12 20.0 NW 28 35 15 19 1006.8 1005.7 0.0
22/11:30am 41.4 35.7 8.5 14 19.3 NW 28 37 15 20 1006.9 1005.8 0.0
22/11:00am 40.4 35.3 7.8 14 18.8 NW 24 33 13 18 1006.9 1005.8 0.0
22/10:30am 38.9 35.5 11.1 19 16.8 NNW 20 26 11 14 1006.9 1005.8 0.0
22/10:00am 37.2 33.0 11.2 21 15.6 NW 24 30 13 16 1006.8 1005.7 0.0
22/09:30am 35.5 31.3 12.5 25 14.0 NW 26 32 14 17 1006.6 1005.5 0.0
22/09:00am 32.6 29.0 11.7 28 12.4 NW 22 28 12 15 1006.6 1005.5 0.0
22/08:30am 30.1 26.9 11.1 31 11.1 N 19 22 10 12 1006.5 1005.4 0.0
22/08:00am 28.7 25.6 10.4 32 10.4 NNE 17 20 9 11 1006.2 1005.1 0.0
22/07:30am 27.3 24.4 10.9 36 9.4 NE 17 19 9 10 1006.0 1004.8 0.0
22/07:00am 26.3 23.4 10.9 38 8.8 NE 17 19 9 10 1005.6 1004.4 0.0

Other Formats:

Comma delimited format used in spreadsheet applications
http://www.bom.gov.au/fwo/IDS60801/IDS60801.95458.axf

JavaScript Object Notation format (JSON) in row-major order
http://www.bom.gov.au/fwo/IDS60801/IDS60801.95458.json